Time;durP1;ratioP1;P1;durP2;ratioP2;P2;SDS_P1;SDS_P2;PMS_P1;PMS_P2;Temp;Humidity;BMP_temperature;BMP_pressure;BME280_temperature;BME280_humidity;BME280_pressure;Samples;Min_cycle;Max_cycle;Signal;HPM_P1;HPM_P2
2022/12/28 00:02:15;;;;;;;7.03;2.87;;;6.50;99.90;;;;;;5080867;28;20283;-61
2022/12/28 00:04:43;;;;;;;9.77;3.00;;;6.50;99.90;;;;;;5081180;28;20203;-65
2022/12/28 00:07:10;;;;;;;2.93;2.17;;;6.50;99.90;;;;;;5077747;28;20209;-62
2022/12/28 00:09:36;;;;;;;4.23;2.23;;;6.50;99.90;;;;;;5076404;28;20226;-62
2022/12/28 00:12:03;;;;;;;6.13;2.77;;;6.50;99.90;;;;;;5078694;28;20224;-62
2022/12/28 00:14:30;;;;;;;2.47;2.13;;;6.50;99.90;;;;;;5080458;28;20590;-64
2022/12/28 00:16:57;;;;;;;3.90;2.13;;;6.50;99.90;;;;;;5078359;28;20199;-62
2022/12/28 00:19:24;;;;;;;5.80;2.23;;;6.60;99.90;;;;;;5080997;28;20663;-62
2022/12/28 00:21:53;;;;;;;4.77;2.33;;;6.60;99.90;;;;;;5080553;28;20297;-61
2022/12/28 00:24:23;;;;;;;3.93;2.73;;;6.60;99.90;;;;;;5081669;28;20261;-62
2022/12/28 00:26:50;;;;;;;4.70;2.73;;;6.70;99.90;;;;;;5080209;28;20206;-64
2022/12/28 00:29:18;;;;;;;5.83;2.27;;;6.70;99.90;;;;;;5077702;28;20226;-62
2022/12/28 00:31:44;;;;;;;3.77;2.07;;;6.70;99.90;;;;;;5079930;28;20195;-62
2022/12/28 00:34:12;;;;;;;3.87;2.50;;;6.70;99.90;;;;;;5078068;28;20195;-62
2022/12/28 00:36:38;;;;;;;4.53;2.40;;;6.70;99.90;;;;;;5078678;28;20535;-61
2022/12/28 00:39:25;;;;;;;4.23;1.93;;;6.70;99.90;;;;;;5081029;28;20573;-62
2022/12/28 00:41:52;;;;;;;4.27;2.27;;;6.70;99.90;;;;;;5080364;28;20213;-62
2022/12/28 00:44:19;;;;;;;7.53;2.50;;;6.70;99.90;;;;;;5086097;28;20686;-62
2022/12/28 00:46:46;;;;;;;7.40;3.13;;;6.70;99.90;;;;;;5078952;28;20670;-62
2022/12/28 00:49:13;;;;;;;4.53;2.50;;;6.70;99.90;;;;;;5078555;28;20207;-62
2022/12/28 00:51:40;;;;;;;4.40;2.37;;;6.70;99.90;;;;;;5079132;28;20322;-62
2022/12/28 00:54:07;;;;;;;9.50;2.80;;;6.80;99.90;;;;;;5078455;28;20227;-61
2022/12/28 00:56:33;;;;;;;7.13;2.87;;;6.70;99.90;;;;;;5079100;28;20198;-62
2022/12/28 00:59:00;;;;;;;4.33;2.53;;;6.80;99.90;;;;;;5080098;28;20202;-62
2022/12/28 01:01:28;;;;;;;3.97;2.20;;;6.80;99.90;;;;;;5079299;28;20242;-62
2022/12/28 01:03:56;;;;;;;5.70;2.77;;;6.90;99.90;;;;;;5078720;28;20231;-62
2022/12/28 01:06:24;;;;;;;5.73;2.37;;;6.90;86.50;;;;;;5078977;28;20658;-61
2022/12/28 01:08:51;;;;;;;6.40;2.37;;;6.90;81.70;;;;;;5079779;28;20568;-62
2022/12/28 01:11:19;;;;;;;5.07;2.60;;;6.90;69.60;;;;;;5076557;28;20273;-62
2022/12/28 01:13:48;;;;;;;6.47;2.87;;;6.90;99.70;;;;;;5075641;28;20682;-61
2022/12/28 01:16:17;;;;;;;3.17;2.20;;;6.90;95.10;;;;;;5075657;28;20286;-62
2022/12/28 01:18:45;;;;;;;4.77;2.00;;;7.00;43.00;;;;;;5076893;28;20288;-62
2022/12/28 01:21:18;;;;;;;3.40;2.20;;;7.00;31.50;;;;;;5079043;28;20199;-63
2022/12/28 01:23:47;;;;;;;5.87;2.23;;;7.00;1.00;;;;;;5078902;28;20230;-62
2022/12/28 01:26:15;;;;;;;6.27;3.10;;;7.10;1.00;;;;;;5079634;28;20233;-62
2022/12/28 01:28:42;;;;;;;4.37;2.43;;;7.10;1.00;;;;;;5077668;28;20249;-62
2022/12/28 01:31:12;;;;;;;3.63;2.23;;;7.10;1.00;;;;;;5077491;28;20211;-62
2022/12/28 01:33:39;;;;;;;3.73;2.33;;;7.10;1.00;;;;;;5079426;28;20997;-62
2022/12/28 01:36:10;;;;;;;7.73;2.47;;;7.20;1.00;;;;;;5078891;28;20296;-64
2022/12/28 01:38:37;;;;;;;4.60;2.40;;;7.20;1.00;;;;;;5079230;28;20286;-65
2022/12/28 01:41:12;;;;;;;3.03;2.50;;;7.10;1.00;;;;;;5079149;28;20254;-62
2022/12/28 01:43:46;;;;;;;2.90;2.10;;;7.20;1.00;;;;;;5078444;28;20214;-62
2022/12/28 01:46:20;;;;;;;4.43;2.50;;;7.20;1.00;;;;;;5078810;28;20228;-61
2022/12/28 01:49:12;;;;;;;5.80;2.67;;;7.20;1.00;;;;;;5078408;28;20580;-62
2022/12/28 01:51:54;;;;;;;4.47;1.97;;;7.30;1.00;;;;;;5032823;28;20315;-63
2022/12/28 01:54:24;;;;;;;3.83;2.53;;;7.30;1.00;;;;;;5078771;28;20299;-62
2022/12/28 01:56:52;;;;;;;7.57;2.10;;;7.30;1.00;;;;;;5078208;28;20715;-62
2022/12/28 01:59:23;;;;;;;2.43;1.83;;;7.30;1.00;;;;;;5075455;28;20621;-64
2022/12/28 02:01:50;;;;;;;4.67;1.90;;;7.30;1.00;;;;;;5060449;28;20331;-61
2022/12/28 02:04:17;;;;;;;3.10;2.20;;;7.30;1.00;;;;;;5079125;28;20195;-64
2022/12/28 02:06:45;;;;;;;6.13;2.73;;;7.30;1.00;;;;;;5075440;28;20223;-64
2022/12/28 02:09:45;;;;;;;8.27;2.60;;;7.30;1.00;;;;;;5077666;28;20310;-61
2022/12/28 02:12:33;;;;;;;3.90;2.50;;;7.30;99.90;;;;;;5079169;28;20260;-64
2022/12/28 02:15:01;;;;;;;2.63;2.37;;;7.20;99.90;;;;;;5077707;28;20515;-62
2022/12/28 02:17:28;;;;;;;5.20;2.60;;;7.20;99.90;;;;;;5083350;28;20199;-62
2022/12/28 02:19:55;;;;;;;2.23;1.90;;;7.20;99.90;;;;;;5065554;28;20287;-61
2022/12/28 02:22:40;;;;;;;4.67;2.40;;;7.20;99.90;;;;;;5081520;28;20731;-62
2022/12/28 02:25:10;;;;;;;7.70;2.20;;;7.10;99.90;;;;;;5080657;28;20283;-62
2022/12/28 02:28:17;;;;;;;4.37;2.27;;;7.10;99.90;;;;;;5081441;28;20201;-61
2022/12/28 02:30:59;;;;;;;7.37;3.20;;;7.10;99.90;;;;;;5082349;28;20219;-61
2022/12/28 02:33:38;;;;;;;4.40;2.40;;;7.10;99.90;;;;;;5065006;28;20192;-62
2022/12/28 02:36:15;;;;;;;5.70;2.63;;;7.10;99.90;;;;;;5081510;28;20234;-62
2022/12/28 02:38:51;;;;;;;4.67;2.73;;;7.20;99.90;;;;;;5084101;28;20272;-62
2022/12/28 02:41:22;;;;;;;2.37;1.97;;;7.20;99.90;;;;;;5081626;28;20215;-61
2022/12/28 02:43:50;;;;;;;4.43;2.20;;;7.20;99.90;;;;;;5081122;28;20210;-61
2022/12/28 02:52:49;;;;;;;3.50;2.63;;;7.10;99.90;;;;;;5080516;28;20511;-62
2022/12/28 02:58:13;;;;;;;3.53;2.53;;;7.10;99.90;;;;;;5081098;28;20420;-62
2022/12/28 03:01:01;;;;;;;5.07;2.60;;;7.10;99.90;;;;;;5081200;28;20226;-62
2022/12/28 03:03:46;;;;;;;6.53;3.00;;;7.10;99.90;;;;;;5082608;28;20288;-64
2022/12/28 03:09:28;;;;;;;6.27;3.20;;;7.10;99.90;;;;;;5082212;28;20282;-61
2022/12/28 03:12:08;;;;;;;5.37;3.23;;;7.20;99.90;;;;;;5065294;28;20317;-61
2022/12/28 03:14:45;;;;;;;4.93;3.47;;;7.10;99.90;;;;;;5079950;28;20671;-62
2022/12/28 03:31:27;;;;;;;4.60;3.40;;;7.50;99.90;;;;;;5077975;28;20292;-62
2022/12/28 03:34:07;;;;;;;4.40;3.20;;;7.50;99.90;;;;;;5079663;28;20210;-62
2022/12/28 03:36:56;;;;;;;4.00;3.10;;;7.60;99.90;;;;;;5062958;28;20229;-64
2022/12/28 03:39:54;;;;;;;5.80;3.53;;;7.60;99.90;;;;;;5079757;28;20187;-62
2022/12/28 03:45:16;;;;;;;5.60;3.30;;;7.70;99.90;;;;;;5079635;28;20237;-62
2022/12/28 03:48:04;;;;;;;4.47;3.20;;;7.70;99.90;;;;;;5078630;28;20554;-62
2022/12/28 03:50:36;;;;;;;5.93;3.13;;;7.80;99.90;;;;;;5060495;28;20211;-64
2022/12/28 03:53:03;;;;;;;4.83;3.30;;;7.80;99.90;;;;;;5058126;28;20582;-62
2022/12/28 03:55:30;;;;;;;5.40;3.67;;;7.80;99.90;;;;;;5077639;28;20196;-62
2022/12/28 03:57:57;;;;;;;5.03;3.43;;;7.80;99.90;;;;;;5060795;28;20248;-61
2022/12/28 04:00:24;;;;;;;5.17;3.30;;;7.90;99.90;;;;;;5076387;28;20206;-62
2022/12/28 04:02:50;;;;;;;6.17;3.13;;;7.90;99.90;;;;;;5059623;28;20663;-62
2022/12/28 04:05:17;;;;;;;8.03;3.37;;;7.90;99.90;;;;;;5078428;28;20203;-64
2022/12/28 04:07:44;;;;;;;4.83;3.00;;;7.90;99.90;;;;;;5076630;28;20266;-62
2022/12/28 04:10:11;;;;;;;5.33;3.60;;;8.00;99.90;;;;;;5075478;28;20620;-63
2022/12/28 04:12:38;;;;;;;9.33;3.93;;;8.00;99.90;;;;;;5076406;28;20793;-62
2022/12/28 04:15:05;;;;;;;5.67;3.70;;;8.00;99.90;;;;;;5074733;28;20289;-62
2022/12/28 04:17:32;;;;;;;5.03;3.27;;;8.00;99.90;;;;;;5076835;28;20202;-62
2022/12/28 04:19:59;;;;;;;5.23;3.17;;;8.10;99.90;;;;;;5075822;28;20644;-62
2022/12/28 04:22:26;;;;;;;3.40;2.97;;;8.10;99.90;;;;;;5072403;28;20271;-62
2022/12/28 04:24:53;;;;;;;4.13;3.40;;;8.10;99.90;;;;;;5075597;28;20202;-62
2022/12/28 04:27:22;;;;;;;4.93;3.37;;;8.10;99.90;;;;;;5076191;28;22433;-63
2022/12/28 04:29:49;;;;;;;4.03;3.63;;;8.10;99.90;;;;;;5072004;28;20581;-62
2022/12/28 04:32:16;;;;;;;3.87;3.00;;;8.20;99.90;;;;;;5075175;28;20302;-62
2022/12/28 04:34:43;;;;;;;3.90;3.10;;;8.20;99.90;;;;;;5073187;28;20204;-62
2022/12/28 04:37:14;;;;;;;7.27;3.17;;;8.30;99.90;;;;;;5075130;28;20708;-62
2022/12/28 04:39:41;;;;;;;6.37;3.50;;;8.20;99.90;;;;;;5072492;28;20282;-62
2022/12/28 04:42:23;;;;;;;6.67;3.87;;;8.30;99.90;;;;;;5073844;28;21132;-63
2022/12/28 04:44:50;;;;;;;3.37;3.00;;;8.30;99.90;;;;;;5074990;28;20203;-62
2022/12/28 04:47:17;;;;;;;5.07;3.40;;;8.30;99.90;;;;;;5071865;28;20229;-62
2022/12/28 04:49:44;;;;;;;3.50;3.00;;;8.40;99.90;;;;;;5072978;28;20216;-66
2022/12/28 04:52:10;;;;;;;7.37;3.30;;;8.40;99.90;;;;;;5072875;28;20251;-65
2022/12/28 04:54:37;;;;;;;7.57;3.10;;;8.40;99.90;;;;;;5058019;28;20197;-62
2022/12/28 04:57:05;;;;;;;4.63;3.27;;;8.50;99.90;;;;;;5073382;28;20273;-62
2022/12/28 04:59:32;;;;;;;3.37;3.07;;;8.50;99.90;;;;;;5060494;28;20209;-62
2022/12/28 05:01:59;;;;;;;3.70;2.90;;;8.50;99.90;;;;;;5075099;28;20208;-62
2022/12/28 05:04:26;;;;;;;5.63;3.40;;;8.50;99.90;;;;;;5075434;28;20321;-62
2022/12/28 05:06:53;;;;;;;5.00;3.20;;;8.40;99.90;;;;;;5073602;28;20766;-62
2022/12/28 05:09:20;;;;;;;6.33;3.07;;;8.40;99.90;;;;;;5076152;28;20291;-62
2022/12/28 05:11:47;;;;;;;5.93;3.20;;;8.50;99.90;;;;;;5076178;28;20231;-62
2022/12/28 05:14:14;;;;;;;6.27;3.30;;;8.50;99.90;;;;;;5074708;28;20298;-62
2022/12/28 05:16:41;;;;;;;3.50;2.93;;;8.50;99.90;;;;;;5077102;28;20204;-62
2022/12/28 05:19:08;;;;;;;4.83;3.10;;;8.50;99.90;;;;;;5056998;28;20226;-62
2022/12/28 05:21:35;;;;;;;4.97;3.10;;;8.60;99.90;;;;;;5075311;28;20207;-62
2022/12/28 05:24:02;;;;;;;3.83;2.80;;;8.50;99.90;;;;;;5075346;28;20268;-62
2022/12/28 05:26:29;;;;;;;4.93;3.20;;;8.50;99.90;;;;;;5074091;28;20206;-62
2022/12/28 05:28:57;;;;;;;5.10;2.90;;;8.50;99.90;;;;;;5072423;28;20295;-62
2022/12/28 05:31:24;;;;;;;4.83;2.63;;;8.50;99.90;;;;;;5077012;28;21107;-62
2022/12/28 05:33:52;;;;;;;5.27;3.17;;;8.50;99.90;;;;;;5074021;28;20207;-62
2022/12/28 05:36:21;;;;;;;4.87;3.40;;;8.40;99.90;;;;;;5077371;28;20296;-63
2022/12/28 05:38:49;;;;;;;4.60;4.20;;;8.40;99.90;;;;;;5076886;28;20762;-62
2022/12/28 05:41:19;;;;;;;4.27;3.67;;;8.40;99.90;;;;;;5071155;28;20235;-64
2022/12/28 05:43:47;;;;;;;3.30;2.40;;;8.40;99.90;;;;;;5076863;28;20215;-62
2022/12/28 05:46:26;;;;;;;3.73;3.23;;;8.40;99.90;;;;;;5078897;28;20207;-62
2022/12/28 05:48:54;;;;;;;4.10;3.37;;;8.40;99.90;;;;;;5078166;28;20679;-62
2022/12/28 05:51:23;;;;;;;4.60;2.77;;;8.40;99.90;;;;;;5060846;28;20216;-62
2022/12/28 05:53:50;;;;;;;5.33;3.20;;;8.40;99.90;;;;;;5082003;28;20200;-62
2022/12/28 05:56:22;;;;;;;3.93;2.63;;;8.40;99.90;;;;;;5083291;28;20708;-62
2022/12/28 05:59:01;;;;;;;5.57;2.87;;;8.40;99.90;;;;;;5065187;28;20312;-62
2022/12/28 06:01:32;;;;;;;4.17;2.73;;;8.40;99.90;;;;;;5072148;28;20194;-62
2022/12/28 06:04:01;;;;;;;3.53;3.20;;;8.40;99.90;;;;;;5082682;28;20828;-62
2022/12/28 06:06:29;;;;;;;4.30;3.03;;;8.40;99.90;;;;;;5071671;28;20204;-62
2022/12/28 06:08:56;;;;;;;7.77;3.70;;;8.40;99.90;;;;;;5081794;28;20207;-62
2022/12/28 06:11:24;;;;;;;3.77;2.90;;;8.40;99.90;;;;;;5082597;28;20235;-62
2022/12/28 06:13:52;;;;;;;3.27;2.90;;;8.40;99.90;;;;;;5081816;28;20195;-62
2022/12/28 06:16:21;;;;;;;4.87;2.70;;;8.40;99.90;;;;;;5082717;28;20203;-62
2022/12/28 06:18:50;;;;;;;3.37;2.90;;;8.40;99.90;;;;;;5083134;28;20228;-62
2022/12/28 06:21:18;;;;;;;5.57;3.00;;;8.40;99.90;;;;;;5081671;28;20532;-62
2022/12/28 06:23:45;;;;;;;3.03;2.73;;;8.50;99.90;;;;;;5081635;28;20353;-62
2022/12/28 06:26:17;;;;;;;4.27;2.93;;;8.50;99.90;;;;;;5083005;28;20244;-62
2022/12/28 06:28:44;;;;;;;2.93;2.57;;;8.50;99.90;;;;;;5060604;28;20197;-62
2022/12/28 06:31:14;;;;;;;7.57;3.30;;;8.50;99.90;;;;;;5082304;28;20223;-62
2022/12/28 06:33:41;;;;;;;2.90;2.60;;;8.50;99.90;;;;;;5083102;28;20199;-62
2022/12/28 06:36:13;;;;;;;2.63;2.43;;;8.60;99.90;;;;;;5082286;28;20201;-62
2022/12/28 06:38:47;;;;;;;3.77;2.50;;;8.60;99.90;;;;;;5071723;28;20256;-64
2022/12/28 06:41:14;;;;;;;2.90;2.57;;;8.60;99.90;;;;;;5082359;28;20208;-63
2022/12/28 06:43:43;;;;;;;5.70;2.83;;;8.60;99.90;;;;;;5081257;28;20909;-63
2022/12/28 06:46:11;;;;;;;4.77;3.03;;;8.60;99.90;;;;;;5082508;28;20287;-62
2022/12/28 06:48:38;;;;;;;3.47;2.50;;;8.60;99.90;;;;;;5080819;28;20204;-62
2022/12/28 06:51:11;;;;;;;3.20;2.50;;;8.60;99.90;;;;;;5082228;28;20224;-62
2022/12/28 06:53:38;;;;;;;4.20;3.10;;;8.70;99.90;;;;;;5064269;28;20200;-62
2022/12/28 06:56:17;;;;;;;3.17;2.87;;;8.70;99.90;;;;;;5064811;28;20531;-62
2022/12/28 06:58:46;;;;;;;7.13;2.73;;;8.70;99.90;;;;;;5080720;28;20546;-61
2022/12/28 07:01:16;;;;;;;3.83;2.73;;;8.70;99.90;;;;;;5073201;28;20292;-62
2022/12/28 07:03:44;;;;;;;3.60;2.83;;;8.70;99.90;;;;;;5081326;28;20212;-62
2022/12/28 07:06:13;;;;;;;4.63;3.23;;;8.70;99.90;;;;;;5080823;28;20201;-63
2022/12/28 07:08:40;;;;;;;4.47;2.80;;;8.70;99.90;;;;;;5064777;28;20278;-62
2022/12/28 07:11:12;;;;;;;3.93;2.87;;;8.70;99.90;;;;;;5082107;28;20249;-63
2022/12/28 07:13:40;;;;;;;4.23;2.63;;;8.80;99.90;;;;;;5081720;28;20241;-62
2022/12/28 07:16:13;;;;;;;3.77;2.73;;;8.80;99.90;;;;;;5081090;28;20289;-63
2022/12/28 07:18:40;;;;;;;4.17;3.03;;;8.80;99.90;;;;;;5081270;28;20539;-62
2022/12/28 07:21:13;;;;;;;4.27;2.90;;;8.80;99.90;;;;;;5063732;28;20218;-62
2022/12/28 07:23:40;;;;;;;4.13;2.90;;;8.80;99.90;;;;;;5083075;28;20780;-62
2022/12/28 07:26:10;;;;;;;9.60;2.87;;;8.80;99.90;;;;;;5082130;28;20208;-62
2022/12/28 07:28:37;;;;;;;4.23;2.93;;;8.80;99.90;;;;;;5079637;28;20209;-62
2022/12/28 07:31:09;;;;;;;5.63;2.70;;;8.80;99.90;;;;;;5080288;28;20205;-62
2022/12/28 07:33:37;;;;;;;3.70;3.00;;;8.80;99.90;;;;;;5079677;28;20672;-62
2022/12/28 07:36:06;;;;;;;3.97;3.13;;;8.80;99.90;;;;;;5069969;28;20558;-62
2022/12/28 07:38:33;;;;;;;5.80;4.00;;;8.90;99.90;;;;;;5081586;28;20708;-62
2022/12/28 07:41:05;;;;;;;4.00;2.57;;;8.90;99.90;;;;;;5081777;28;20287;-62
2022/12/28 07:43:34;;;;;;;3.20;2.90;;;8.90;99.90;;;;;;5080906;28;20201;-62
2022/12/28 07:46:03;;;;;;;4.03;2.83;;;8.90;99.90;;;;;;5081490;28;20670;-63
2022/12/28 07:48:33;;;;;;;3.90;2.37;;;8.90;99.90;;;;;;5079254;28;20211;-62
2022/12/28 07:51:28;;;;;;;5.03;2.87;;;8.90;99.90;;;;;;5066151;28;20283;-62
2022/12/28 07:53:56;;;;;;;7.20;2.90;;;9.00;99.90;;;;;;5078791;28;20205;-63
2022/12/28 07:56:25;;;;;;;3.27;2.63;;;9.00;99.90;;;;;;5077540;28;20547;-63
2022/12/28 07:58:58;;;;;;;4.27;2.70;;;9.00;99.90;;;;;;5076316;28;22670;-63
2022/12/28 08:01:27;;;;;;;5.53;3.23;;;8.90;99.90;;;;;;5075356;28;20253;-63
2022/12/28 08:03:57;;;;;;;5.23;3.03;;;9.00;99.90;;;;;;5079213;28;20200;-63
2022/12/28 08:06:25;;;;;;;6.47;2.80;;;9.00;99.90;;;;;;4715304;28;10000294;-63
2022/12/28 08:08:55;;;;;;;5.97;2.90;;;9.00;99.90;;;;;;5071024;28;20294;-62
2022/12/28 08:11:24;;;;;;;5.07;3.43;;;9.00;99.90;;;;;;5070365;28;20326;-62
2022/12/28 08:13:52;;;;;;;6.30;2.60;;;9.10;99.90;;;;;;5070361;28;20224;-62
2022/12/28 08:16:21;;;;;;;5.83;3.10;;;9.00;99.90;;;;;;5048257;28;20211;-62
2022/12/28 08:18:48;;;;;;;6.83;3.50;;;9.00;99.90;;;;;;5063180;28;20286;-62
2022/12/28 08:21:24;;;;;;;4.80;2.67;;;9.00;99.90;;;;;;5072739;28;20210;-62
2022/12/28 08:23:51;;;;;;;3.30;3.00;;;8.90;99.90;;;;;;5072777;28;20264;-62
2022/12/28 08:26:27;;;;;;;4.67;3.33;;;8.90;99.90;;;;;;5068850;28;22490;-62
2022/12/28 08:28:57;;;;;;;5.00;3.27;;;8.90;99.90;;;;;;5072470;28;20201;-62
2022/12/28 08:31:26;;;;;;;5.87;3.40;;;8.90;99.90;;;;;;5070035;28;20575;-62
2022/12/28 08:33:55;;;;;;;6.47;3.50;;;8.90;99.90;;;;;;5064168;28;20203;-62
2022/12/28 08:36:22;;;;;;;4.10;3.70;;;8.90;99.90;;;;;;5066884;28;20929;-62
2022/12/28 08:38:49;;;;;;;5.33;4.07;;;8.90;99.90;;;;;;5070430;28;20192;-63
2022/12/28 08:41:19;;;;;;;6.23;3.80;;;8.90;99.90;;;;;;5070449;28;20886;-62
2022/12/28 08:43:48;;;;;;;4.13;3.50;;;8.90;99.90;;;;;;5060648;28;21021;-65
2022/12/28 08:46:20;;;;;;;7.73;3.70;;;8.90;99.90;;;;;;5066160;28;20675;-61
2022/12/28 08:48:48;;;;;;;5.37;3.40;;;9.00;99.90;;;;;;5064878;28;20365;-61
2022/12/28 08:51:17;;;;;;;6.47;3.60;;;9.00;99.90;;;;;;5071573;28;20677;-61
2022/12/28 08:53:45;;;;;;;5.40;3.60;;;9.00;99.90;;;;;;5067217;28;20266;-61
2022/12/28 08:56:26;;;;;;;6.53;3.33;;;9.00;99.90;;;;;;5072942;28;20301;-61
2022/12/28 08:58:54;;;;;;;3.70;2.77;;;9.00;99.90;;;;;;5069030;28;20198;-61
2022/12/28 09:01:30;;;;;;;7.00;2.80;;;9.10;99.90;;;;;;5073385;28;20216;-61
2022/12/28 09:04:02;;;;;;;6.17;2.87;;;9.10;99.90;;;;;;5075469;28;20833;-62
2022/12/28 09:06:32;;;;;;;6.97;2.73;;;9.10;99.90;;;;;;5078105;28;20203;-61
2022/12/28 09:09:00;;;;;;;4.67;2.77;;;9.10;99.90;;;;;;5077872;28;20214;-61
2022/12/28 09:11:35;;;;;;;4.23;2.37;;;9.20;99.90;;;;;;5077170;28;20226;-61
2022/12/28 09:14:08;;;;;;;3.17;2.47;;;9.20;99.90;;;;;;5058835;28;20756;-61
2022/12/28 09:16:36;;;;;;;4.93;2.77;;;9.30;99.90;;;;;;5059550;28;20198;-61
2022/12/28 09:19:06;;;;;;;5.77;2.60;;;9.30;99.90;;;;;;5076746;28;20203;-61
2022/12/28 09:21:36;;;;;;;5.03;2.30;;;9.20;99.90;;;;;;5076656;28;20576;-61
2022/12/28 09:24:03;;;;;;;4.87;2.63;;;9.20;99.90;;;;;;5081396;28;20241;-62
2022/12/28 09:26:34;;;;;;;4.27;2.33;;;9.20;99.90;;;;;;5078871;28;20510;-61
2022/12/28 09:29:04;;;;;;;5.17;2.07;;;9.20;99.90;;;;;;5078248;28;20687;-61
2022/12/28 09:31:35;;;;;;;3.90;2.27;;;9.20;99.90;;;;;;5079599;28;20200;-61
2022/12/28 09:34:04;;;;;;;5.40;2.30;;;9.20;99.90;;;;;;5060781;28;20191;-61
2022/12/28 09:36:51;;;;;;;3.63;2.03;;;9.20;99.90;;;;;;5063840;28;20218;-61
2022/12/28 09:39:21;;;;;;;6.33;2.50;;;9.10;99.90;;;;;;5080627;28;20653;-62
2022/12/28 09:42:20;;;;;;;5.40;2.00;;;9.10;99.90;;;;;;5061965;28;20663;-61
2022/12/28 09:45:05;;;;;;;2.50;2.20;;;9.10;99.90;;;;;;5078793;28;20739;-61
2022/12/28 09:47:49;;;;;;;5.67;2.27;;;9.10;99.90;;;;;;5077946;28;20234;-61
2022/12/28 09:50:16;;;;;;;7.23;2.50;;;9.10;99.90;;;;;;5079548;28;20796;-63
2022/12/28 09:53:14;;;;;;;6.27;2.50;;;9.20;99.90;;;;;;5078462;28;20238;-61
2022/12/28 09:55:50;;;;;;;5.60;2.30;;;9.20;99.90;;;;;;5068680;28;20215;-61
2022/12/28 09:58:16;;;;;;;6.33;2.40;;;9.30;99.90;;;;;;5060067;28;20200;-61
2022/12/28 10:00:52;;;;;;;3.00;1.93;;;9.30;99.90;;;;;;5079199;28;20212;-61
2022/12/28 10:03:25;;;;;;;3.33;1.90;;;9.40;99.90;;;;;;5076611;28;20804;-61
2022/12/28 10:05:55;;;;;;;5.50;1.83;;;9.40;99.90;;;;;;5060553;28;20198;-62
2022/12/28 10:08:23;;;;;;;5.93;2.17;;;9.50;99.90;;;;;;5079250;28;20326;-61
2022/12/28 10:10:52;;;;;;;3.70;1.90;;;9.50;99.90;;;;;;5080152;28;20842;-61
2022/12/28 10:13:24;;;;;;;7.67;1.67;;;9.50;99.90;;;;;;5078718;28;20300;-61
2022/12/28 10:16:17;;;;;;;2.83;1.60;;;9.60;99.90;;;;;;5079233;28;20206;-62
2022/12/28 10:18:45;;;;;;;2.63;1.40;;;9.50;99.90;;;;;;5077549;28;20207;-61
2022/12/28 10:21:13;;;;;;;2.00;1.50;;;9.50;99.90;;;;;;5078732;28;20286;-62
2022/12/28 10:23:41;;;;;;;3.33;1.70;;;9.50;99.90;;;;;;5079138;28;20247;-61
2022/12/28 10:26:29;;;;;;;4.00;1.70;;;9.40;99.90;;;;;;5063899;28;20214;-61
2022/12/28 10:29:00;;;;;;;2.40;1.50;;;9.40;99.90;;;;;;5078774;28;20233;-61
2022/12/28 10:31:36;;;;;;;3.17;1.83;;;9.30;99.90;;;;;;5078326;28;20238;-61
2022/12/28 10:34:19;;;;;;;3.23;1.50;;;9.30;99.90;;;;;;5078100;28;20201;-62
2022/12/28 10:36:47;;;;;;;1.80;1.37;;;9.30;99.90;;;;;;5078675;28;20203;-61
2022/12/28 10:39:33;;;;;;;4.83;1.70;;;9.20;99.90;;;;;;5081167;28;20224;-61
2022/12/28 10:42:01;;;;;;;3.10;1.63;;;9.20;99.90;;;;;;5082639;28;20218;-62
2022/12/28 10:44:33;;;;;;;2.27;1.50;;;9.20;99.90;;;;;;5080098;28;20696;-61
2022/12/28 10:47:15;;;;;;;1.57;1.47;;;9.20;99.90;;;;;;5065261;28;20575;-61
2022/12/28 10:49:49;;;;;;;4.47;1.40;;;9.20;99.90;;;;;;5082234;28;20760;-61
2022/12/28 10:52:35;;;;;;;2.80;1.47;;;9.20;99.90;;;;;;5081064;28;20221;-61
2022/12/28 10:55:22;;;;;;;1.47;1.30;;;9.20;99.90;;;;;;5063813;28;20654;-61
2022/12/28 10:57:49;;;;;;;3.63;1.83;;;9.20;99.90;;;;;;5080808;28;20242;-61
2022/12/28 11:00:36;;;;;;;1.70;1.37;;;9.20;99.90;;;;;;5079858;28;20217;-62
2022/12/28 11:03:16;;;;;;;1.70;1.60;;;9.20;99.90;;;;;;5078653;28;20281;-62
2022/12/28 11:05:43;;;;;;;1.80;1.70;;;9.20;99.90;;;;;;5065115;28;20212;-61
2022/12/28 11:08:15;;;;;;;1.93;1.57;;;9.20;99.90;;;;;;5078740;28;20571;-61
2022/12/28 11:10:42;;;;;;;2.53;1.73;;;9.20;99.90;;;;;;5063607;28;20313;-61
2022/12/28 11:13:18;;;;;;;3.33;1.60;;;9.20;99.90;;;;;;5081093;28;20215;-62
2022/12/28 11:15:47;;;;;;;1.43;1.27;;;9.20;99.90;;;;;;5060430;28;20203;-62
2022/12/28 11:18:17;;;;;;;2.37;1.80;;;9.20;99.90;;;;;;5077311;28;20223;-61
2022/12/28 11:20:47;;;;;;;2.37;1.50;;;9.20;99.90;;;;;;5081065;28;20252;-61
2022/12/28 11:23:19;;;;;;;2.07;1.87;;;9.30;99.90;;;;;;5063209;28;20230;-61
2022/12/28 11:25:46;;;;;;;2.83;1.70;;;9.20;99.90;;;;;;5080295;28;20208;-62
2022/12/28 11:28:19;;;;;;;3.63;1.97;;;9.30;99.90;;;;;;5078271;28;20299;-61
2022/12/28 11:30:49;;;;;;;2.60;1.63;;;9.30;99.90;;;;;;5080824;28;20616;-61
2022/12/28 11:33:38;;;;;;;4.37;1.60;;;9.30;99.90;;;;;;5080904;28;20265;-63
2022/12/28 11:36:13;;;;;;;2.87;1.80;;;9.30;99.90;;;;;;5075885;28;20206;-62
2022/12/28 11:38:45;;;;;;;2.63;1.70;;;9.20;99.90;;;;;;5079153;28;20563;-62
2022/12/28 11:41:39;;;;;;;3.87;1.80;;;9.30;99.90;;;;;;5077845;28;20203;-62
2022/12/28 11:44:34;;;;;;;3.80;1.50;;;9.30;99.90;;;;;;5079782;28;20199;-61
2022/12/28 11:47:03;;;;;;;3.73;1.70;;;9.30;99.90;;;;;;5080762;28;20215;-62
2022/12/28 11:49:33;;;;;;;2.20;1.77;;;9.30;99.90;;;;;;5077431;28;20204;-61
2022/12/28 11:52:26;;;;;;;4.23;2.13;;;9.30;99.90;;;;;;5080052;28;20201;-62
2022/12/28 11:54:53;;;;;;;4.23;1.90;;;9.30;99.90;;;;;;5079500;28;20515;-62
2022/12/28 11:57:38;;;;;;;4.40;2.10;;;9.30;99.90;;;;;;5076405;28;20719;-62
2022/12/28 12:00:22;;;;;;;3.47;1.87;;;9.30;99.90;;;;;;5072759;28;20234;-62
2022/12/28 12:03:00;;;;;;;2.50;1.77;;;9.30;99.90;;;;;;5079223;28;20270;-61
2022/12/28 12:05:47;;;;;;;2.93;1.83;;;9.30;99.90;;;;;;5078046;28;20251;-61
2022/12/28 12:08:13;;;;;;;6.23;1.77;;;9.30;99.90;;;;;;5079432;28;20203;-62
2022/12/28 12:10:46;;;;;;;3.63;2.27;;;9.30;99.90;;;;;;5078200;28;20239;-61
2022/12/28 12:13:25;;;;;;;4.53;2.10;;;9.30;99.90;;;;;;5070285;28;20220;-62
2022/12/28 12:15:56;;;;;;;2.83;1.90;;;9.30;99.90;;;;;;5073576;28;20568;-61
2022/12/28 12:18:26;;;;;;;2.43;1.67;;;9.30;99.90;;;;;;5070099;28;20285;-61
2022/12/28 12:21:04;;;;;;;4.13;2.00;;;9.30;99.90;;;;;;5074818;28;20284;-62
2022/12/28 12:23:46;;;;;;;3.40;1.97;;;9.30;99.90;;;;;;5076803;28;20266;-62
2022/12/28 12:26:53;;;;;;;3.13;1.97;;;9.30;99.90;;;;;;5076874;28;20203;-61
2022/12/28 12:29:41;;;;;;;4.47;1.67;;;9.30;99.90;;;;;;5073952;28;20204;-62
2022/12/28 12:32:35;;;;;;;8.00;2.30;;;9.30;99.90;;;;;;5077035;28;20199;-62
2022/12/28 12:35:05;;;;;;;2.27;1.47;;;9.40;99.90;;;;;;5076052;28;20208;-62
2022/12/28 12:37:46;;;;;;;5.17;2.07;;;9.30;99.90;;;;;;5064415;28;20203;-65
2022/12/28 12:40:18;;;;;;;5.03;1.90;;;9.40;99.90;;;;;;5074517;28;20196;-62
2022/12/28 12:43:17;;;;;;;4.53;2.30;;;9.40;99.90;;;;;;5074324;28;20194;-63
2022/12/28 12:45:49;;;;;;;7.83;2.10;;;9.40;99.90;;;;;;5072811;28;20200;-62
2022/12/28 12:48:54;;;;;;;2.90;1.80;;;9.40;99.90;;;;;;5072372;28;20193;-62
2022/12/28 12:51:24;;;;;;;3.77;2.07;;;9.40;99.90;;;;;;5036875;28;20223;-63
2022/12/28 12:53:54;;;;;;;6.00;1.97;;;9.40;99.90;;;;;;5066579;28;20293;-61
2022/12/28 12:56:32;;;;;;;3.77;1.73;;;9.40;99.90;;;;;;5071649;28;20203;-62
2022/12/28 12:59:21;;;;;;;5.13;1.73;;;9.40;99.90;;;;;;5080147;28;20601;-61
2022/12/28 13:02:02;;;;;;;3.37;1.73;;;9.40;99.90;;;;;;5077296;28;20299;-61
2022/12/28 13:04:34;;;;;;;9.13;2.57;;;9.50;99.90;;;;;;5072910;28;20200;-63
2022/12/28 13:07:04;;;;;;;3.17;1.80;;;9.50;99.90;;;;;;5070774;28;20600;-61
2022/12/28 13:09:33;;;;;;;4.73;2.00;;;9.50;99.90;;;;;;5072359;28;20291;-61
2022/12/28 13:12:01;;;;;;;2.83;1.93;;;9.50;99.90;;;;;;5073272;28;20549;-60
2022/12/28 13:14:28;;;;;;;4.67;2.00;;;9.50;99.90;;;;;;5063377;28;20635;-61
2022/12/28 13:16:58;;;;;;;4.77;2.00;;;9.50;99.90;;;;;;5075355;28;20242;-63
2022/12/28 13:19:27;;;;;;;5.97;2.27;;;9.60;99.90;;;;;;5069211;28;20289;-67
2022/12/28 13:21:57;;;;;;;6.10;1.87;;;9.60;99.90;;;;;;5069088;28;20205;-63
2022/12/28 13:24:26;;;;;;;3.17;1.77;;;9.60;99.90;;;;;;5072664;28;20359;-64
2022/12/28 13:26:55;;;;;;;4.27;2.00;;;9.60;99.90;;;;;;5075173;28;20231;-62
2022/12/28 13:29:24;;;;;;;5.37;2.07;;;9.60;99.90;;;;;;5077406;28;20254;-62
2022/12/28 13:31:52;;;;;;;3.77;1.67;;;9.60;99.90;;;;;;5074525;28;20205;-62
2022/12/28 13:34:23;;;;;;;4.77;1.93;;;9.60;99.90;;;;;;5070418;28;20313;-61
2022/12/28 13:36:53;;;;;;;7.37;2.60;;;9.60;99.90;;;;;;5068454;28;20200;-65
2022/12/28 13:39:21;;;;;;;4.73;1.77;;;9.70;99.90;;;;;;5071775;28;20218;-65
2022/12/28 13:41:56;;;;;;;8.27;1.90;;;9.70;99.90;;;;;;5074703;28;20241;-66
2022/12/28 13:44:41;;;;;;;6.77;2.10;;;9.70;99.90;;;;;;5072467;28;20209;-65
2022/12/28 13:47:24;;;;;;;4.57;1.97;;;9.70;99.90;;;;;;5071988;28;20216;-63
2022/12/28 13:49:54;;;;;;;6.20;1.70;;;9.70;99.90;;;;;;5071160;28;20260;-63
2022/12/28 13:52:45;;;;;;;4.43;1.60;;;9.70;99.90;;;;;;5070118;28;20345;-63
2022/12/28 13:55:43;;;;;;;3.63;1.67;;;9.80;99.90;;;;;;5061582;28;20205;-63